Time;durP1;ratioP1;P1;durP2;ratioP2;P2;SDS_P1;SDS_P2;PMS_P1;PMS_P2;Temp;Humidity;BMP_temperature;BMP_pressure;BME280_temperature;BME280_humidity;BME280_pressure;Samples;Min_cycle;Max_cycle;Signal;HPM_P1;HPM_P2
2022/10/08 00:00:49;;;;;;;10.47;4.47;;;12.80;99.90;;;;;;4959796;28;93473;-32
2022/10/08 00:03:16;;;;;;;7.65;3.40;;;12.80;99.90;;;;;;4959488;28;94757;-32
2022/10/08 00:05:42;;;;;;;6.68;3.38;;;12.80;99.90;;;;;;4959826;28;95761;-30
2022/10/08 00:08:09;;;;;;;9.85;3.63;;;12.80;99.90;;;;;;4959696;28;92318;-31
2022/10/08 00:10:35;;;;;;;10.23;3.85;;;12.80;99.90;;;;;;4959302;28;92138;-31
2022/10/08 00:13:02;;;;;;;7.93;3.50;;;12.80;99.90;;;;;;4959073;28;95553;-29
2022/10/08 00:15:28;;;;;;;16.77;3.72;;;12.80;99.90;;;;;;4958505;28;97650;-33
2022/10/08 00:17:53;;;;;;;9.05;3.88;;;12.80;99.90;;;;;;4959690;28;95152;-29
2022/10/08 00:20:20;;;;;;;8.32;4.55;;;12.90;99.90;;;;;;4959372;28;93488;-31
2022/10/08 00:22:47;;;;;;;10.30;3.38;;;12.80;99.90;;;;;;4959819;28;93761;-32
2022/10/08 00:25:13;;;;;;;8.48;3.28;;;12.80;99.90;;;;;;4959455;28;95053;-29
2022/10/08 00:27:38;;;;;;;7.32;3.63;;;12.80;99.90;;;;;;4959843;28;94117;-29
2022/10/08 00:30:04;;;;;;;6.35;3.20;;;12.90;99.90;;;;;;4959649;28;93763;-34
2022/10/08 00:32:30;;;;;;;6.63;3.67;;;12.80;99.90;;;;;;4958836;28;96704;-30
2022/10/08 00:34:56;;;;;;;10.32;3.95;;;12.90;99.90;;;;;;4958956;28;94756;-31
2022/10/08 00:37:22;;;;;;;12.88;4.47;;;12.90;99.90;;;;;;4959862;28;94548;-31
2022/10/08 00:39:47;;;;;;;9.85;3.72;;;13.00;99.90;;;;;;4958599;28;94833;-32
2022/10/08 00:42:13;;;;;;;15.60;4.45;;;13.00;99.90;;;;;;4958700;28;93950;-31
2022/10/08 00:44:53;;;;;;;11.60;4.50;;;13.10;99.90;;;;;;4958843;28;94577;-30
2022/10/08 00:47:31;;;;;;;4.20;3.47;;;13.10;99.90;;;;;;4959466;28;94710;-31
2022/10/08 00:50:00;;;;;;;4.22;3.10;;;13.00;99.90;;;;;;4959422;28;92824;-31
2022/10/08 00:52:32;;;;;;;8.98;4.47;;;13.00;99.90;;;;;;4994539;22;94619;-29
2022/10/08 00:54:58;;;;;;;11.18;3.53;;;13.00;99.90;;;;;;4978853;28;96275;-31
2022/10/08 00:57:25;;;;;;;7.43;3.83;;;13.00;99.90;;;;;;4978220;28;93066;-30
2022/10/08 00:59:51;;;;;;;8.00;3.88;;;12.90;99.90;;;;;;4979639;28;93311;-33
2022/10/08 01:02:18;;;;;;;10.25;4.03;;;12.90;99.90;;;;;;4977786;28;96092;-32
2022/10/08 01:04:45;;;;;;;10.20;4.60;;;12.90;99.90;;;;;;4978187;28;97404;-32
2022/10/08 01:07:22;;;;;;;4.87;3.37;;;12.90;99.90;;;;;;4978476;28;93740;-33
2022/10/08 01:10:01;;;;;;;7.40;4.32;;;12.80;99.90;;;;;;4979152;28;94318;-31
2022/10/08 01:12:58;;;;;;;6.32;3.58;;;12.80;99.90;;;;;;4978774;28;95030;-34
2022/10/08 01:15:34;;;;;;;8.20;3.10;;;12.70;99.90;;;;;;4978661;28;94906;-31
2022/10/08 01:18:09;;;;;;;4.63;3.20;;;12.70;99.90;;;;;;4978292;28;94641;-29
2022/10/08 01:20:47;;;;;;;12.15;4.38;;;12.70;99.90;;;;;;4978879;28;93546;-34
2022/10/08 01:23:18;;;;;;;6.82;4.30;;;12.60;99.90;;;;;;4978497;28;95573;-32
2022/10/08 01:26:02;;;;;;;7.18;3.88;;;12.60;99.90;;;;;;4978580;28;94710;-30
2022/10/08 01:28:37;;;;;;;4.78;4.05;;;12.50;99.90;;;;;;4977459;28;95854;-31
2022/10/08 01:31:12;;;;;;;8.05;4.28;;;12.50;99.90;;;;;;4978043;28;93290;-31
2022/10/08 01:33:41;;;;;;;11.70;5.10;;;12.50;99.90;;;;;;4978746;28;94482;-30
2022/10/08 01:36:10;;;;;;;9.27;4.82;;;12.50;99.90;;;;;;4978290;28;94573;-31
2022/10/08 01:38:41;;;;;;;11.02;4.78;;;12.40;99.90;;;;;;4977634;28;94465;-32
2022/10/08 01:41:09;;;;;;;6.55;3.92;;;12.50;99.90;;;;;;4978334;28;93468;-32
2022/10/08 01:43:38;;;;;;;;;;;12.40;99.90;;;;;;4978302;28;96005;-31
2022/10/08 01:46:24;;;;;;;8.25;4.28;;;12.40;99.90;;;;;;4979821;28;94222;-33
2022/10/08 01:48:53;;;;;;;5.93;3.97;;;12.40;99.90;;;;;;4978026;28;93454;-31
2022/10/08 01:51:27;;;;;;;4.38;3.33;;;12.40;99.90;;;;;;4976633;28;93751;-30
2022/10/08 01:53:54;;;;;;;15.02;3.75;;;12.40;99.90;;;;;;4977635;28;96087;-31
2022/10/08 01:56:24;;;;;;;11.63;3.70;;;12.40;99.90;;;;;;4977495;28;95036;-30
2022/10/08 01:59:01;;;;;;;8.15;3.95;;;12.40;99.90;;;;;;4977469;28;94352;-32
2022/10/08 02:01:33;;;;;;;4.18;3.78;;;12.40;99.90;;;;;;4977673;28;92056;-30
2022/10/08 02:06:49;;;;;;;6.10;3.53;;;12.40;99.90;;;;;;4977566;28;94492;-34
2022/10/08 02:09:15;;;;;;;6.30;3.45;;;12.40;99.90;;;;;;4977360;28;94490;-29
2022/10/08 02:11:40;;;;;;;8.00;3.78;;;12.40;99.90;;;;;;4978324;28;93917;-31
2022/10/08 02:14:07;;;;;;;11.00;3.85;;;12.40;99.90;;;;;;4976885;28;94541;-32
2022/10/08 02:16:34;;;;;;;6.65;3.28;;;12.40;99.90;;;;;;4977908;28;95348;-31
2022/10/08 02:19:09;;;;;;;6.80;4.82;;;12.40;99.90;;;;;;4977306;28;94651;-32
2022/10/08 02:21:38;;;;;;;4.57;3.40;;;12.40;99.90;;;;;;4977126;28;94534;-31
2022/10/08 02:24:15;;;;;;;7.55;3.85;;;12.40;99.90;;;;;;4976535;28;94800;-33
2022/10/08 02:26:52;;;;;;;3.80;3.05;;;12.40;99.90;;;;;;4977393;28;94862;-30
2022/10/08 02:29:40;;;;;;;13.73;4.00;;;12.40;99.90;;;;;;4977899;28;92945;-29
2022/10/08 02:32:22;;;;;;;4.50;3.33;;;12.40;99.90;;;;;;4964493;28;92099;-31
2022/10/08 02:34:55;;;;;;;5.82;4.03;;;12.30;99.90;;;;;;4976914;28;95605;-29
2022/10/08 02:37:30;;;;;;;8.60;3.92;;;12.40;99.90;;;;;;4977431;28;94971;-30
2022/10/08 02:40:05;;;;;;;4.32;3.65;;;12.40;99.90;;;;;;4977522;28;92599;-31
2022/10/08 02:42:32;;;;;;;4.97;3.60;;;12.30;99.90;;;;;;4977856;28;94406;-30
2022/10/08 02:45:06;;;;;;;6.47;3.65;;;12.30;99.90;;;;;;4976236;28;97417;-31
2022/10/08 02:47:34;;;;;;;4.57;4.18;;;12.30;99.90;;;;;;4974792;28;95385;-32
2022/10/08 02:50:03;;;;;;;9.30;5.43;;;12.30;99.90;;;;;;4974320;28;94418;-30
2022/10/08 02:52:35;;;;;;;8.27;4.75;;;12.30;99.90;;;;;;4977046;28;94283;-29
2022/10/08 02:55:06;;;;;;;4.53;4.13;;;12.20;99.90;;;;;;4969927;28;93401;-34
2022/10/08 02:57:42;;;;;;;5.82;4.22;;;12.30;99.90;;;;;;4958454;28;96097;-30
2022/10/08 03:00:09;;;;;;;3.97;3.67;;;12.20;99.90;;;;;;4957974;28;94174;-33
2022/10/08 03:02:40;;;;;;;7.30;4.40;;;12.20;99.90;;;;;;4959585;28;92828;-29
2022/10/08 03:05:12;;;;;;;4.53;3.38;;;12.20;99.90;;;;;;4968116;28;94173;-29
2022/10/08 03:07:37;;;;;;;4.47;3.83;;;12.20;99.90;;;;;;4956792;28;94627;-31
2022/10/08 03:10:05;;;;;;;10.70;4.90;;;12.20;99.90;;;;;;4957044;28;95391;-31
2022/10/08 03:12:32;;;;;;;8.10;3.50;;;12.10;99.90;;;;;;4956511;28;94428;-29
2022/10/08 03:14:58;;;;;;;3.83;3.38;;;12.10;99.90;;;;;;4957024;28;95008;-33
2022/10/08 03:17:29;;;;;;;5.15;3.53;;;12.10;99.90;;;;;;4956939;28;95603;-30
2022/10/08 03:19:56;;;;;;;5.35;3.65;;;12.00;99.90;;;;;;4962498;28;94761;-30
2022/10/08 03:22:23;;;;;;;7.38;3.70;;;12.00;99.90;;;;;;4965155;28;92963;-32
2022/10/08 03:24:48;;;;;;;5.57;3.67;;;12.00;99.90;;;;;;4956349;28;94984;-32
2022/10/08 03:27:14;;;;;;;7.13;3.13;;;11.90;99.90;;;;;;4957245;28;94149;-31
2022/10/08 03:29:40;;;;;;;4.55;4.07;;;11.90;99.90;;;;;;4957260;28;94498;-32
2022/10/08 03:32:05;;;;;;;5.60;3.42;;;12.00;99.90;;;;;;4957077;28;94304;-29
2022/10/08 03:34:31;;;;;;;8.93;3.65;;;11.90;99.90;;;;;;4956139;28;95782;-30
2022/10/08 03:36:57;;;;;;;7.53;3.55;;;11.80;99.90;;;;;;4956551;28;95403;-33
2022/10/08 03:39:22;;;;;;;6.00;3.58;;;11.80;99.90;;;;;;4957106;28;94541;-31
2022/10/08 03:41:48;;;;;;;6.22;4.20;;;11.70;99.90;;;;;;4956355;28;92922;-32
2022/10/08 03:44:13;;;;;;;7.22;3.92;;;11.70;99.90;;;;;;4957348;28;95112;-30
2022/10/08 03:46:39;;;;;;;3.50;3.20;;;11.70;99.90;;;;;;4956045;28;94683;-29
2022/10/08 03:49:05;;;;;;;4.97;3.55;;;11.60;99.90;;;;;;4957416;28;93947;-31
2022/10/08 03:51:31;;;;;;;5.88;4.32;;;11.60;99.90;;;;;;4956550;28;91874;-30
2022/10/08 03:53:57;;;;;;;5.97;3.58;;;11.60;99.90;;;;;;4960483;28;94652;-30
2022/10/08 03:56:23;;;;;;;7.97;3.95;;;11.50;99.90;;;;;;4966281;28;94734;-29
2022/10/08 03:58:54;;;;;;;6.38;3.85;;;11.50;99.90;;;;;;4969795;28;93561;-32
2022/10/08 04:01:20;;;;;;;11.38;4.05;;;11.50;99.90;;;;;;4956362;28;92538;-32
2022/10/08 04:03:45;;;;;;;6.05;3.30;;;11.40;99.90;;;;;;4956106;28;94833;-31
2022/10/08 04:06:11;;;;;;;10.32;4.85;;;11.40;99.90;;;;;;4956627;28;94614;-30
2022/10/08 04:08:37;;;;;;;6.25;4.43;;;11.40;99.90;;;;;;4956213;28;93145;-30
2022/10/08 04:11:04;;;;;;;5.90;3.85;;;11.40;99.90;;;;;;4956465;28;94501;-29
2022/10/08 04:13:30;;;;;;;6.15;3.67;;;11.30;99.90;;;;;;4955821;28;94466;-32
2022/10/08 04:16:04;;;;;;;8.15;5.43;;;11.30;99.90;;;;;;4958193;28;94152;-30
2022/10/08 04:18:31;;;;;;;7.55;4.07;;;11.40;99.90;;;;;;4959831;28;92136;-30
2022/10/08 04:21:02;;;;;;;5.85;4.43;;;11.30;99.90;;;;;;4959264;28;92183;-32
2022/10/08 04:23:30;;;;;;;7.55;3.78;;;11.30;99.90;;;;;;4958581;28;95753;-33
2022/10/08 04:25:56;;;;;;;9.38;5.10;;;11.30;99.90;;;;;;4958825;28;95015;-30
2022/10/08 04:28:22;;;;;;;4.00;3.60;;;11.30;99.90;;;;;;4960129;28;93489;-30
2022/10/08 04:30:56;;;;;;;8.43;3.50;;;11.30;99.90;;;;;;4959762;28;94179;-32
2022/10/08 04:33:22;;;;;;;7.57;4.03;;;11.30;99.90;;;;;;4972323;28;94624;-32
2022/10/08 04:35:48;;;;;;;9.07;4.55;;;11.40;99.90;;;;;;4959348;28;94553;-32
2022/10/08 04:38:13;;;;;;;6.40;4.10;;;11.30;99.90;;;;;;4959061;28;93037;-30
2022/10/08 04:40:39;;;;;;;6.28;4.72;;;11.40;99.90;;;;;;4960339;28;93186;-31
2022/10/08 04:43:04;;;;;;;5.95;4.22;;;11.40;99.90;;;;;;4959105;28;93672;-30
2022/10/08 04:45:30;;;;;;;6.93;4.45;;;11.40;99.90;;;;;;4959481;28;94376;-30
2022/10/08 04:47:55;;;;;;;5.93;4.32;;;11.40;99.90;;;;;;4958877;28;94140;-32
2022/10/08 04:50:21;;;;;;;8.07;4.63;;;11.40;99.90;;;;;;4958857;28;92506;-30
2022/10/08 04:52:47;;;;;;;5.22;4.18;;;11.40;99.90;;;;;;4958820;28;95022;-29
2022/10/08 04:55:12;;;;;;;7.30;5.15;;;11.40;99.90;;;;;;4972898;28;94728;-29
2022/10/08 04:57:38;;;;;;;9.48;4.45;;;11.40;99.90;;;;;;4959816;28;93028;-32
2022/10/08 05:00:05;;;;;;;7.82;4.78;;;11.40;99.90;;;;;;4958288;28;93154;-32
2022/10/08 05:02:31;;;;;;;9.52;5.03;;;11.40;99.90;;;;;;4958680;28;94720;-29
2022/10/08 05:04:56;;;;;;;5.88;5.10;;;11.40;99.90;;;;;;4959251;28;93499;-29
2022/10/08 05:07:23;;;;;;;9.70;5.60;;;11.40;99.90;;;;;;4959165;28;92137;-29
2022/10/08 05:09:49;;;;;;;6.55;4.63;;;11.40;99.90;;;;;;4959176;28;93231;-32
2022/10/08 05:12:14;;;;;;;7.85;4.95;;;11.40;99.90;;;;;;4957885;28;95723;-31
2022/10/08 05:14:40;;;;;;;9.27;4.82;;;11.40;99.90;;;;;;4958636;28;94442;-29
2022/10/08 05:17:05;;;;;;;11.10;5.95;;;11.40;99.90;;;;;;4959583;28;93787;-30
2022/10/08 05:19:31;;;;;;;9.40;5.32;;;11.40;99.90;;;;;;4958185;28;93838;-30
2022/10/08 05:21:56;;;;;;;6.00;4.15;;;11.40;99.90;;;;;;4959189;28;94850;-30
2022/10/08 05:24:22;;;;;;;7.63;4.72;;;11.40;99.90;;;;;;4957305;28;94865;-32
2022/10/08 05:26:50;;;;;;;6.20;4.57;;;11.40;99.90;;;;;;4957848;28;93516;-31
2022/10/08 05:29:16;;;;;;;9.50;4.35;;;11.40;99.90;;;;;;4958665;28;91890;-32
2022/10/08 05:31:42;;;;;;;9.10;4.28;;;11.40;99.90;;;;;;4958438;28;94697;-30
2022/10/08 05:34:14;;;;;;;10.27;3.97;;;11.40;99.90;;;;;;4958131;28;94593;-33
2022/10/08 05:36:40;;;;;;;7.90;4.45;;;11.40;99.90;;;;;;4972215;28;95101;-30
2022/10/08 05:39:05;;;;;;;7.00;4.07;;;11.40;99.90;;;;;;4958211;28;94804;-30
2022/10/08 05:41:35;;;;;;;11.68;4.53;;;11.40;99.90;;;;;;4957744;28;94553;-30
2022/10/08 05:44:01;;;;;;;5.68;3.83;;;11.40;99.90;;;;;;4957847;28;94838;-30
2022/10/08 05:46:29;;;;;;;11.82;4.25;;;11.40;99.90;;;;;;4958217;28;93810;-33
2022/10/08 05:48:57;;;;;;;8.70;4.07;;;11.40;99.90;;;;;;4958402;28;94264;-32
2022/10/08 05:51:23;;;;;;;8.70;5.07;;;11.30;99.90;;;;;;4958223;28;94931;-29
2022/10/08 05:53:51;;;;;;;15.02;5.05;;;11.30;99.90;;;;;;4946891;28;94607;-31
2022/10/08 05:56:20;;;;;;;13.97;4.87;;;11.30;99.90;;;;;;4968463;28;93980;-30
2022/10/08 05:58:47;;;;;;;8.10;4.47;;;11.20;99.90;;;;;;4957777;28;93092;-30
2022/10/08 06:01:21;;;;;;;10.95;4.63;;;11.20;99.90;;;;;;4957241;28;95607;-30
2022/10/08 06:03:52;;;;;;;12.48;5.13;;;11.20;99.90;;;;;;4957231;28;94853;-30
2022/10/08 06:06:18;;;;;;;7.35;3.80;;;11.20;99.90;;;;;;4957693;28;93255;-29
2022/10/08 06:08:45;;;;;;;12.65;4.82;;;11.20;99.90;;;;;;4957605;28;92188;-32
2022/10/08 06:11:10;;;;;;;10.35;4.03;;;11.20;99.90;;;;;;4958329;28;94752;-30
2022/10/08 06:13:36;;;;;;;10.60;4.32;;;11.10;99.90;;;;;;4957530;28;95027;-32
2022/10/08 06:16:05;;;;;;;6.63;4.03;;;11.10;99.90;;;;;;4962649;28;94272;-30
2022/10/08 06:18:33;;;;;;;8.65;3.85;;;11.10;99.90;;;;;;4967018;28;93807;-31
2022/10/08 06:21:20;;;;;;;9.30;3.90;;;11.10;99.90;;;;;;4957540;28;93434;-31
2022/10/08 06:23:50;;;;;;;7.03;3.42;;;11.10;99.90;;;;;;4957498;28;94776;-29
2022/10/08 06:26:16;;;;;;;14.20;3.35;;;11.10;99.90;;;;;;4957539;28;93765;-31
2022/10/08 06:28:43;;;;;;;8.02;4.32;;;11.10;99.90;;;;;;4957004;28;92189;-30
2022/10/08 06:31:09;;;;;;;5.90;3.55;;;11.10;99.90;;;;;;4957670;28;94660;-30
2022/10/08 06:33:35;;;;;;;6.53;3.65;;;11.10;99.90;;;;;;4956991;28;94240;-29
2022/10/08 06:36:24;;;;;;;8.10;3.20;;;11.10;99.90;;;;;;4958142;28;94050;-31
2022/10/08 06:38:52;;;;;;;13.20;4.15;;;11.10;99.90;;;;;;4960188;28;93195;-31
2022/10/08 06:41:18;;;;;;;5.47;3.72;;;11.10;99.90;;;;;;4957104;28;95177;-29
2022/10/08 06:43:44;;;;;;;8.77;3.38;;;11.10;99.90;;;;;;4957959;28;94486;-29
2022/10/08 06:46:09;;;;;;;5.63;3.20;;;11.20;99.90;;;;;;4957275;28;94663;-31
2022/10/08 06:48:35;;;;;;;10.32;3.92;;;11.20;99.90;;;;;;4957661;28;93010;-32
2022/10/08 06:51:06;;;;;;;8.20;4.32;;;11.20;99.90;;;;;;4956477;28;96202;-32
2022/10/08 06:53:33;;;;;;;7.90;3.78;;;11.30;99.90;;;;;;4961280;28;97334;-33
2022/10/08 06:56:02;;;;;;;9.60;4.27;;;11.40;99.90;;;;;;4970181;28;94818;-30
2022/10/08 06:58:27;;;;;;;7.70;4.35;;;11.50;99.90;;;;;;4957162;28;93102;-29
2022/10/08 07:01:19;;;;;;;6.57;4.03;;;11.60;99.90;;;;;;4957360;28;94567;-29
2022/10/08 07:03:52;;;;;;;10.43;4.47;;;11.60;99.90;;;;;;4956748;28;94672;-31
2022/10/08 07:06:18;;;;;;;11.07;4.40;;;11.60;99.90;;;;;;4969301;28;92145;-31
2022/10/08 07:08:44;;;;;;;9.70;3.92;;;11.70;99.90;;;;;;4967666;28;93179;-34
2022/10/08 07:11:16;;;;;;;8.45;4.93;;;11.70;99.90;;;;;;4975722;28;95733;-29
2022/10/08 07:13:42;;;;;;;7.20;4.22;;;11.70;99.90;;;;;;4976504;28;94457;-29
2022/10/08 07:16:11;;;;;;;8.88;3.85;;;11.70;99.90;;;;;;4976308;28;93259;-32
2022/10/08 07:18:38;;;;;;;6.40;3.88;;;11.80;99.90;;;;;;4976829;28;94193;-30
2022/10/08 07:21:05;;;;;;;9.48;3.88;;;11.80;99.90;;;;;;4966306;28;94835;-33
2022/10/08 07:23:31;;;;;;;9.88;4.68;;;11.90;99.90;;;;;;4976707;28;95355;-31
2022/10/08 07:26:10;;;;;;;14.02;4.63;;;12.00;99.90;;;;;;4976725;28;94121;-32
2022/10/08 07:28:39;;;;;;;6.10;4.18;;;12.10;99.90;;;;;;4976512;28;93550;-31
2022/10/08 07:31:06;;;;;;;7.15;4.15;;;12.20;99.90;;;;;;4970362;28;95126;-31
2022/10/08 07:33:32;;;;;;;9.77;4.27;;;12.30;99.90;;;;;;4968933;28;94236;-32
2022/10/08 07:36:07;;;;;;;12.63;4.25;;;12.30;99.90;;;;;;4976618;28;93284;-32
2022/10/08 07:38:32;;;;;;;6.25;4.38;;;12.30;99.90;;;;;;4960156;28;93325;-31
2022/10/08 07:40:58;;;;;;;6.75;3.78;;;12.40;99.90;;;;;;4972739;28;95801;-31
2022/10/08 07:43:23;;;;;;;8.35;4.03;;;12.50;99.90;;;;;;4973821;28;95278;-31
2022/10/08 07:45:49;;;;;;;8.27;3.90;;;12.60;99.90;;;;;;4960568;28;94953;-34
2022/10/08 07:48:17;;;;;;;5.10;3.55;;;12.70;99.90;;;;;;4971806;28;93427;-33
2022/10/08 07:50:43;;;;;;;10.27;3.78;;;12.70;99.90;;;;;;4969203;28;93587;-33
2022/10/08 07:53:09;;;;;;;8.77;3.95;;;12.80;99.90;;;;;;4962531;28;94793;-32
2022/10/08 07:55:34;;;;;;;9.27;3.38;;;12.90;99.90;;;;;;4972167;28;94425;-31
2022/10/08 07:58:00;;;;;;;7.03;3.17;;;13.10;99.90;;;;;;4957921;28;92793;-33
2022/10/08 08:00:25;;;;;;;6.00;2.40;;;13.20;99.90;;;;;;4957706;28;94808;-31
2022/10/08 08:02:51;;;;;;;7.22;3.00;;;13.20;99.90;;;;;;4973051;28;94041;-32
2022/10/08 08:05:16;;;;;;;3.83;2.03;;;13.10;99.90;;;;;;4970936;28;95036;-31
2022/10/08 08:07:42;;;;;;;5.45;2.60;;;13.00;99.90;;;;;;4977437;28;92935;-31
2022/10/08 08:10:08;;;;;;;7.68;2.40;;;12.90;99.90;;;;;;4977858;28;95232;-32
2022/10/08 08:12:33;;;;;;;11.45;2.60;;;12.90;99.90;;;;;;4970502;28;93795;-30
2022/10/08 08:14:59;;;;;;;5.00;3.08;;;13.00;99.90;;;;;;4971017;28;94219;-32
2022/10/08 08:17:24;;;;;;;8.15;2.30;;;13.10;99.90;;;;;;4975976;28;94243;-30
2022/10/08 08:19:50;;;;;;;12.98;2.67;;;13.20;99.90;;;;;;4972072;28;93217;-30
2022/10/08 08:22:16;;;;;;;4.03;2.75;;;13.30;99.90;;;;;;4977819;28;94612;-31
2022/10/08 08:24:41;;;;;;;5.75;2.10;;;13.30;99.90;;;;;;4976934;28;94407;-29
2022/10/08 08:27:07;;;;;;;5.63;2.17;;;13.40;99.90;;;;;;4977580;28;94508;-34
2022/10/08 08:29:32;;;;;;;10.13;2.70;;;13.50;99.90;;;;;;4957968;28;95620;-31
2022/10/08 08:31:58;;;;;;;5.13;2.47;;;13.60;99.90;;;;;;4977199;28;95605;-32
2022/10/08 08:34:24;;;;;;;9.60;2.40;;;13.70;99.90;;;;;;4971721;28;92121;-31
2022/10/08 08:36:52;;;;;;;5.45;2.70;;;13.80;99.90;;;;;;4970098;28;92539;-32
2022/10/08 08:39:26;;;;;;;4.05;1.90;;;13.90;99.90;;;;;;4976515;28;94716;-30
2022/10/08 08:42:17;;;;;;;7.47;2.42;;;14.10;99.90;;;;;;4977325;28;94378;-30
2022/10/08 08:44:57;;;;;;;9.73;2.70;;;14.10;99.90;;;;;;4977536;28;94309;-32
2022/10/08 08:47:26;;;;;;;4.38;2.60;;;14.20;99.90;;;;;;4977452;28;92681;-30
2022/10/08 08:49:53;;;;;;;4.30;2.17;;;14.30;99.90;;;;;;4976431;28;93664;-35
2022/10/08 08:52:23;;;;;;;4.72;2.83;;;14.40;99.90;;;;;;4976723;28;94678;-32
2022/10/08 08:54:50;;;;;;;3.72;2.33;;;14.50;99.90;;;;;;4977408;28;93626;-32
2022/10/08 08:57:36;;;;;;;6.30;2.00;;;14.60;99.90;;;;;;4959135;28;94582;-32
2022/10/08 09:00:14;;;;;;;8.32;3.30;;;14.70;99.90;;;;;;4956498;28;94778;-31
2022/10/08 09:02:58;;;;;;;6.50;2.33;;;14.70;99.90;;;;;;4956700;28;94307;-31
2022/10/08 09:05:25;;;;;;;10.00;2.42;;;14.80;99.90;;;;;;4975151;28;93587;-32
2022/10/08 09:07:58;;;;;;;8.68;2.58;;;14.80;99.90;;;;;;4977006;28;92149;-34
2022/10/08 09:10:33;;;;;;;6.80;2.00;;;14.80;99.90;;;;;;4970530;28;94808;-33
2022/10/08 09:13:00;;;;;;;7.35;2.05;;;14.80;99.90;;;;;;4976622;28;94426;-31
2022/10/08 09:15:34;;;;;;;3.05;1.70;;;15.00;99.90;;;;;;4976855;28;94309;-33
2022/10/08 09:18:02;;;;;;;6.28;2.08;;;15.00;99.90;;;;;;4976311;28;94471;-30
2022/10/08 09:20:29;;;;;;;5.07;1.75;;;15.00;99.90;;;;;;4975446;28;94580;-31
2022/10/08 09:22:55;;;;;;;6.22;2.13;;;15.10;99.90;;;;;;4976484;28;95213;-33
2022/10/08 09:25:27;;;;;;;8.80;2.42;;;15.20;99.90;;;;;;4976390;28;93931;-30
2022/10/08 09:27:59;;;;;;;6.93;2.72;;;15.30;99.90;;;;;;4965715;28;93831;-33
2022/10/08 09:30:26;;;;;;;5.00;2.08;;;15.30;99.90;;;;;;4974420;28;94732;-31
2022/10/08 09:32:58;;;;;;;3.05;1.33;;;15.40;99.90;;;;;;4976847;28;94322;-31
2022/10/08 09:35:24;;;;;;;3.75;1.70;;;15.40;99.90;;;;;;4975035;28;93679;-32
2022/10/08 09:37:50;;;;;;;8.93;2.60;;;15.40;99.90;;;;;;4974737;28;92335;-31
2022/10/08 09:40:22;;;;;;;6.10;1.80;;;15.40;99.90;;;;;;4955244;28;94880;-32
2022/10/08 09:43:06;;;;;;;7.60;2.83;;;15.50;99.90;;;;;;4962926;28;94706;-31
2022/10/08 09:45:33;;;;;;;7.57;1.70;;;15.60;99.90;;;;;;4974350;28;96300;-32
2022/10/08 09:48:15;;;;;;;6.95;1.75;;;15.60;99.90;;;;;;4975776;28;93542;-32
2022/10/08 09:51:13;;;;;;;4.97;1.70;;;15.60;99.90;;;;;;4974447;28;94874;-31
2022/10/08 09:54:06;;;;;;;2.35;1.42;;;15.50;99.90;;;;;;4965426;28;94362;-30
2022/10/08 09:56:32;;;;;;;6.82;1.65;;;15.40;99.90;;;;;;4960048;28;93669;-33
2022/10/08 09:59:04;;;;;;;8.15;1.58;;;15.20;99.90;;;;;;4955735;28;94270;-30
2022/10/08 10:01:30;;;;;;;6.82;2.00;;;15.10;99.90;;;;;;4954890;28;94670;-31
2022/10/08 10:04:01;;;;;;;4.15;1.85;;;15.20;99.90;;;;;;4954869;28;94428;-30
2022/10/08 10:06:31;;;;;;;7.50;1.88;;;15.20;99.90;;;;;;4955387;28;92510;-30
2022/10/08 10:09:09;;;;;;;7.10;1.73;;;15.40;99.90;;;;;;4955583;28;92653;-31
2022/10/08 10:11:53;;;;;;;7.20;1.98;;;15.40;99.90;;;;;;4962167;28;95548;-31
2022/10/08 10:14:28;;;;;;;3.13;1.42;;;15.30;99.90;;;;;;4957673;28;94830;-31
2022/10/08 10:17:06;;;;;;;8.32;1.38;;;15.20;99.90;;;;;;4955852;28;93385;-31
2022/10/08 10:19:52;;;;;;;5.30;1.65;;;15.10;99.90;;;;;;4954899;28;92192;-33
2022/10/08 10:22:31;;;;;;;5.97;1.52;;;14.90;99.90;;;;;;4968370;28;95341;-33
2022/10/08 10:25:12;;;;;;;12.43;1.48;;;14.60;99.90;;;;;;4954679;28;94731;-31
2022/10/08 10:27:42;;;;;;;2.10;0.85;;;14.40;99.90;;;;;;4958129;28;93633;-30
2022/10/08 10:30:20;;;;;;;12.77;2.63;;;14.20;99.90;;;;;;4963913;28;93772;-33
2022/10/08 10:33:03;;;;;;;11.63;2.35;;;14.10;99.90;;;;;;4960063;28;94733;-29
2022/10/08 10:35:31;;;;;;;3.05;1.40;;;14.00;99.90;;;;;;4954839;28;94564;-31
2022/10/08 10:38:27;;;;;;;4.45;2.17;;;13.90;99.90;;;;;;4968774;28;94476;-32
2022/10/08 10:41:25;;;;;;;10.68;2.30;;;13.80;99.90;;;;;;4954761;28;93348;-32
2022/10/08 10:43:56;;;;;;;;;;;13.90;99.90;;;;;;4965382;28;95046;-32
2022/10/08 10:46:28;;;;;;;9.93;1.92;;;14.20;99.90;;;;;;4955675;28;95086;-31
2022/10/08 10:48:55;;;;;;;4.13;1.73;;;14.50;99.90;;;;;;4956153;28;92744;-31
2022/10/08 10:51:32;;;;;;;3.70;1.55;;;14.70;99.90;;;;;;4953475;28;92140;-34
2022/10/08 10:53:59;;;;;;;9.77;7.47;;;14.90;99.90;;;;;;4959070;28;94709;-29
2022/10/08 10:56:30;;;;;;;5.30;2.00;;;15.10;99.90;;;;;;4964292;28;94924;-30
2022/10/08 10:59:29;;;;;;;6.03;1.15;;;15.30;99.90;;;;;;4954827;28;94962;-33
2022/10/08 11:02:13;;;;;;;3.33;1.08;;;15.60;99.90;;;;;;4954727;28;93207;-33
2022/10/08 11:04:51;;;;;;;6.45;1.52;;;15.80;99.90;;;;;;4965805;28;94285;-30
2022/10/08 11:07:33;;;;;;;3.30;1.42;;;15.90;99.90;;;;;;4954287;28;94933;-31
2022/10/08 11:10:13;;;;;;;1.80;1.08;;;16.00;99.90;;;;;;4955368;28;92918;-31
2022/10/08 11:13:00;;;;;;;10.82;2.58;;;16.10;99.90;;;;;;4954653;28;92155;-32
2022/10/08 11:15:39;;;;;;;4.60;1.60;;;16.20;99.90;;;;;;4953865;28;94588;-33
2022/10/08 11:18:13;;;;;;;2.75;1.27;;;16.20;99.90;;;;;;4955852;28;94517;-35
2022/10/08 11:20:44;;;;;;;2.67;1.30;;;16.20;99.90;;;;;;4955003;28;93263;-31
2022/10/08 11:23:22;;;;;;;3.55;1.77;;;16.20;99.90;;;;;;4955278;28;92687;-30
2022/10/08 11:26:04;;;;;;;1.95;0.70;;;16.00;99.90;;;;;;4957702;28;95427;-30
2022/10/08 11:29:08;;;;;;;2.92;1.55;;;15.80;99.90;;;;;;4958345;28;94792;-32
2022/10/08 11:31:41;;;;;;;5.10;1.77;;;15.50;99.90;;;;;;4971407;28;95547;-31
2022/10/08 11:34:31;;;;;;;1.40;0.98;;;15.30;99.90;;;;;;4958633;28;93640;-32
2022/10/08 11:37:19;;;;;;;5.80;0.90;;;15.10;99.90;;;;;;4957774;28;95299;-33
2022/10/08 11:40:20;;;;;;;6.53;1.23;;;15.20;99.90;;;;;;4957578;28;94828;-30
2022/10/08 11:43:12;;;;;;;2.10;0.98;;;15.20;99.90;;;;;;4958032;28;94341;-31
2022/10/08 11:45:44;;;;;;;3.03;1.15;;;15.40;99.90;;;;;;4935975;28;95093;-31
2022/10/08 11:48:42;;;;;;;2.50;1.17;;;15.70;99.90;;;;;;4957206;28;95094;-34
2022/10/08 11:51:20;;;;;;;;;;;15.90;99.90;;;;;;4930494;28;94609;-33
2022/10/08 11:54:01;;;;;;;6.05;1.63;;;15.90;99.90;;;;;;4979101;28;93927;-30
2022/10/08 11:56:27;;;;;;;5.45;1.10;;;15.90;99.90;;;;;;4965757;28;93115;-29
2022/10/08 11:58:55;;;;;;;4.25;1.90;;;16.00;99.90;;;;;;4957334;28;95462;-32
2022/10/08 12:01:21;;;;;;;4.78;1.15;;;16.20;99.90;;;;;;4957414;28;96798;-30
2022/10/08 12:04:15;;;;;;;4.03;1.20;;;16.30;99.90;;;;;;4957731;28;94651;-31
2022/10/08 12:06:41;;;;;;;2.15;1.25;;;16.40;99.90;;;;;;4957633;28;93532;-32
2022/10/08 12:09:20;;;;;;;2.35;0.82;;;16.50;99.90;;;;;;4957329;28;94880;-33
2022/10/08 12:11:47;;;;;;;2.67;1.55;;;16.60;99.90;;;;;;4957790;28;96241;-32
2022/10/08 12:14:16;;;;;;;9.57;1.03;;;16.60;99.90;;;;;;4957242;28;92606;-33
2022/10/08 12:16:47;;;;;;;5.53;1.35;;;16.60;99.90;;;;;;4958239;28;93319;-35
2022/10/08 12:19:34;;;;;;;2.90;1.52;;;16.60;99.90;;;;;;4956534;28;94238;-32
2022/10/08 12:22:05;;;;;;;4.40;1.25;;;16.60;99.90;;;;;;4957514;28;94559;-32
2022/10/08 12:24:37;;;;;;;3.75;1.10;;;16.60;99.90;;;;;;4960639;28;94579;-31
2022/10/08 12:27:15;;;;;;;2.75;1.35;;;16.70;99.90;;;;;;4967304;28;94223;-31
2022/10/08 12:29:59;;;;;;;4.93;2.03;;;16.70;99.90;;;;;;4957033;28;94404;-32
2022/10/08 12:32:27;;;;;;;6.03;1.52;;;16.80;99.90;;;;;;4957094;28;94625;-30
2022/10/08 12:34:54;;;;;;;5.05;2.28;;;16.90;99.90;;;;;;4957186;28;94276;-33
2022/10/08 12:37:41;;;;;;;3.60;1.73;;;16.80;99.90;;;;;;4975256;28;93733;-33
2022/10/08 12:40:37;;;;;;;6.90;1.80;;;16.80;99.90;;;;;;4980067;28;95766;-30
2022/10/08 12:43:08;;;;;;;6.63;1.60;;;16.80;99.90;;;;;;4948441;28;93770;-29
2022/10/08 12:45:45;;;;;;;8.07;1.42;;;16.90;99.90;;;;;;4974313;28;94284;-32
2022/10/08 12:48:32;;;;;;;9.43;1.65;;;17.00;99.90;;;;;;4976981;28;93730;-31
2022/10/08 12:51:01;;;;;;;4.38;1.42;;;17.00;99.90;;;;;;4967937;28;95731;-32
2022/10/08 12:53:27;;;;;;;6.47;1.45;;;17.00;99.90;;;;;;4986357;22;95777;-30
2022/10/08 12:55:55;;;;;;;8.90;1.80;;;17.00;99.90;;;;;;4938318;28;94284;-31
2022/10/08 12:58:25;;;;;;;3.58;1.13;;;16.90;99.90;;;;;;4939164;28;93097;-29
2022/10/08 13:00:57;;;;;;;7.72;1.88;;;16.80;99.90;;;;;;4936855;28;94974;-30
2022/10/08 13:03:24;;;;;;;7.95;1.77;;;16.90;99.90;;;;;;4937535;28;94572;-31
2022/10/08 13:05:54;;;;;;;3.97;1.23;;;16.90;99.90;;;;;;4937599;28;93671;-31
2022/10/08 13:08:33;;;;;;;7.68;1.38;;;16.90;99.90;;;;;;4936681;28;92655;-33